Time;durP1;ratioP1;P1;durP2;ratioP2;P2;SDS_P1;SDS_P2;PMS_P1;PMS_P2;Temp;Humidity;BMP_temperature;BMP_pressure;BME280_temperature;BME280_humidity;BME280_pressure;Samples;Min_cycle;Max_cycle;Signal;HPM_P1;HPM_P2
2021/12/22 00:01:02;;;;;;;29.37;18.77;;;-0.20;99.90;;;;;;4892534;29;20398;-86
2021/12/22 00:03:53;;;;;;;31.65;20.45;;;-0.20;99.90;;;;;;4912446;29;20046;-86
2021/12/22 00:06:37;;;;;;;33.17;20.52;;;-0.20;99.90;;;;;;4872852;29;20101;-86
2021/12/22 00:09:06;;;;;;;32.47;20.47;;;-0.30;99.90;;;;;;4897545;29;20036;-87
2021/12/22 00:11:34;;;;;;;31.47;19.27;;;-0.30;99.90;;;;;;4881854;29;20427;-87
2021/12/22 00:14:25;;;;;;;29.23;18.33;;;-0.30;99.90;;;;;;4882412;29;20119;-86
2021/12/22 00:17:14;;;;;;;;;;;;;;;;;;;;;
2021/12/22 00:19:43;;;;;;;30.63;19.10;;;-0.40;99.90;;;;;;4914004;29;20039;-86
2021/12/22 00:22:19;;;;;;;29.23;18.23;;;-0.40;99.90;;;;;;4916567;29;20051;-86
2021/12/22 00:24:45;;;;;;;28.87;17.57;;;-0.40;99.90;;;;;;4901694;29;20028;-86
2021/12/22 00:27:13;;;;;;;29.73;18.33;;;-0.40;99.90;;;;;;4901324;29;20525;-85
2021/12/22 00:29:45;;;;;;;25.87;16.60;;;-0.40;99.90;;;;;;4917199;29;20410;-86
2021/12/22 00:32:14;;;;;;;31.80;18.42;;;-0.40;99.90;;;;;;4918229;29;20466;-86
2021/12/22 00:34:51;;;;;;;30.87;18.07;;;-0.40;99.90;;;;;;4912079;29;20025;-86
2021/12/22 00:37:25;;;;;;;27.50;17.90;;;-0.40;99.90;;;;;;4924279;29;20058;-86
2021/12/22 00:40:15;;;;;;;31.30;18.53;;;-0.50;99.90;;;;;;4929412;28;20064;-85
2021/12/22 00:43:03;;;;;;;28.20;16.53;;;-0.50;99.90;;;;;;4913013;29;20036;-86
2021/12/22 00:45:35;;;;;;;27.80;16.90;;;-0.40;99.90;;;;;;4897826;29;20119;-86
2021/12/22 00:48:04;;;;;;;28.35;17.52;;;-0.40;99.90;;;;;;4917225;29;20024;-86
2021/12/22 00:50:46;;;;;;;29.83;17.37;;;-0.50;99.90;;;;;;4899606;29;20349;-86
2021/12/22 00:53:14;;;;;;;31.87;17.80;;;-0.40;99.90;;;;;;4901357;29;20526;-86
2021/12/22 00:55:45;;;;;;;26.83;17.17;;;-0.50;99.90;;;;;;4899295;29;20124;-85
2021/12/22 00:58:20;;;;;;;30.77;17.52;;;-0.50;99.90;;;;;;4915697;29;20028;-87
2021/12/22 01:00:47;;;;;;;28.67;16.83;;;-0.50;99.90;;;;;;4883523;29;20053;-86
2021/12/22 01:03:39;;;;;;;28.47;17.50;;;-0.50;99.90;;;;;;4881347;29;20064;-87
2021/12/22 01:06:39;;;;;;;;;;;;;;;;;;;;;
2021/12/22 01:09:22;;;;;;;27.30;17.38;;;-0.60;99.90;;;;;;4904065;29;20483;-86
2021/12/22 01:12:00;;;;;;;29.43;17.80;;;-0.60;99.90;;;;;;4915209;29;20056;-86
2021/12/22 01:14:34;;;;;;;31.87;18.97;;;-0.60;99.90;;;;;;4898787;29;20028;-85
2021/12/22 01:17:13;;;;;;;29.30;18.40;;;-0.60;99.90;;;;;;4885954;29;20080;-85
2021/12/22 01:20:06;;;;;;;30.43;17.37;;;-0.60;99.90;;;;;;4884877;29;20037;-85
2021/12/22 01:25:19;;;;;;;29.63;17.50;;;-0.70;99.90;;;;;;4900588;29;20505;-85
2021/12/22 01:28:41;;;;;;;;;;;;;;;;;;;;;
2021/12/22 01:31:17;;;;;;;29.13;18.35;;;-0.70;99.90;;;;;;4920572;29;20522;-86
2021/12/22 01:34:02;;;;;;;32.43;19.37;;;-0.70;99.90;;;;;;4903493;29;20028;-85
2021/12/22 01:36:33;;;;;;;35.70;19.13;;;-0.70;99.90;;;;;;4917025;29;20542;-85
2021/12/22 01:39:06;;;;;;;35.03;21.33;;;-0.70;99.90;;;;;;4884811;29;20043;-85
2021/12/22 01:41:35;;;;;;;38.23;20.47;;;-0.70;99.90;;;;;;4893521;29;20060;-85
2021/12/22 01:44:07;;;;;;;39.10;21.37;;;-0.70;99.90;;;;;;4902944;29;20028;-86
2021/12/22 01:49:12;;;;;;;35.30;20.27;;;-0.80;99.90;;;;;;4919708;29;20051;-86
2021/12/22 01:51:49;;;;;;;40.13;20.90;;;-0.80;99.90;;;;;;4907402;29;20031;-86
2021/12/22 01:54:21;;;;;;;35.60;19.43;;;-0.80;99.90;;;;;;4925757;28;20044;-86
2021/12/22 01:57:00;;;;;;;;;;;-0.80;99.90;;;;;;4942892;28;20103;-84
2021/12/22 01:59:32;;;;;;;37.80;22.13;;;-0.80;99.90;;;;;;4902335;29;19939;-85
2021/12/22 02:02:02;;;;;;;40.03;21.97;;;-0.90;99.90;;;;;;4888706;29;20025;-85
2021/12/22 02:04:33;;;;;;;39.43;22.10;;;-1.00;99.90;;;;;;4910656;29;20020;-86
2021/12/22 02:07:02;;;;;;;35.47;19.83;;;-1.00;99.90;;;;;;4922063;29;20038;-85
2021/12/22 02:12:32;;;;;;;35.90;20.50;;;-1.00;99.90;;;;;;4930115;29;20035;-86
2021/12/22 02:15:03;;;;;;;34.53;19.67;;;-1.00;99.90;;;;;;4902526;29;20028;-86
2021/12/22 02:17:55;;;;;;;;;;;;;;;;;;;;;
2021/12/22 02:20:21;;;;;;;42.10;21.33;;;-1.00;99.90;;;;;;4905560;29;20036;-86
2021/12/22 02:22:57;;;;;;;40.70;22.37;;;-1.10;99.90;;;;;;4919112;29;20107;-85
2021/12/22 02:25:32;;;;;;;40.27;22.70;;;-1.10;99.90;;;;;;4884159;29;20088;-87
2021/12/22 02:28:03;;;;;;;42.33;22.33;;;-1.10;99.90;;;;;;4883715;29;20035;-85
2021/12/22 02:30:32;;;;;;;50.03;24.58;;;-1.20;99.90;;;;;;4896966;29;20035;-85
2021/12/22 02:33:22;;;;;;;40.33;22.83;;;-1.20;99.90;;;;;;4918879;29;20032;-85
2021/12/22 02:36:09;;;;;;;54.03;25.93;;;-1.20;99.90;;;;;;4904956;29;20064;-85
2021/12/22 02:38:42;;;;;;;44.13;24.27;;;-1.20;99.90;;;;;;4904605;29;20040;-86
2021/12/22 02:41:12;;;;;;;45.27;23.00;;;-1.30;99.90;;;;;;4897231;29;20052;-86
2021/12/22 02:43:48;;;;;;;51.67;24.17;;;-1.30;99.90;;;;;;4889653;29;20027;-85
2021/12/22 02:46:30;;;;;;;40.20;22.40;;;-1.40;99.90;;;;;;4883331;29;20032;-85
2021/12/22 02:48:56;;;;;;;44.57;22.80;;;-1.40;99.90;;;;;;4912403;29;20032;-85
2021/12/22 02:51:23;;;;;;;41.50;21.47;;;-1.50;99.90;;;;;;4900984;29;20107;-85
2021/12/22 02:54:18;;;;;;;;;;;;;;;;;;;;;
2021/12/22 02:56:57;;;;;;;38.30;21.87;;;-1.60;99.90;;;;;;4918781;29;20040;-85
2021/12/22 02:59:43;;;;;;;53.77;22.53;;;-1.60;99.90;;;;;;4907926;29;20029;-85
2021/12/22 03:02:19;;;;;;;34.63;20.43;;;-1.60;99.90;;;;;;4895637;29;20024;-85
2021/12/22 03:04:56;;;;;;;39.27;22.83;;;-1.60;99.90;;;;;;4901782;29;20048;-85
2021/12/22 03:07:28;;;;;;;49.67;22.23;;;-1.60;99.90;;;;;;4902715;29;20024;-85
2021/12/22 03:10:07;;;;;;;30.97;19.37;;;-1.70;99.90;;;;;;4889024;29;20032;-86
2021/12/22 03:12:37;;;;;;;49.77;20.60;;;-1.70;99.90;;;;;;4918586;28;20020;-86
2021/12/22 03:15:09;;;;;;;49.47;21.00;;;-1.70;99.90;;;;;;4912872;28;20112;-85
2021/12/22 03:17:40;;;;;;;40.30;20.63;;;-1.70;99.90;;;;;;4905560;29;20048;-86
2021/12/22 03:20:13;;;;;;;37.47;20.60;;;-1.70;99.90;;;;;;4891506;29;20028;-86
2021/12/22 03:22:44;;;;;;;36.57;20.93;;;-1.70;99.90;;;;;;4890768;29;20083;-85
2021/12/22 03:25:15;;;;;;;40.05;21.60;;;-1.70;99.90;;;;;;4898464;29;20120;-85
2021/12/22 03:27:46;;;;;;;36.78;20.50;;;-1.70;99.90;;;;;;4915960;29;20059;-85
2021/12/22 03:30:13;;;;;;;31.43;19.17;;;-1.70;99.90;;;;;;4893704;29;20033;-85
2021/12/22 03:32:39;;;;;;;43.53;21.83;;;-1.70;99.90;;;;;;4882804;29;20554;-84
2021/12/22 03:35:05;;;;;;;38.17;20.37;;;-1.70;99.90;;;;;;4881977;29;20088;-85
2021/12/22 03:37:37;;;;;;;43.23;21.57;;;-1.70;99.90;;;;;;4889405;29;20035;-86
2021/12/22 03:40:08;;;;;;;35.05;20.23;;;-1.70;99.90;;;;;;4915862;29;20059;-85
2021/12/22 03:42:37;;;;;;;33.77;19.73;;;-1.80;99.90;;;;;;4916370;29;20075;-85
2021/12/22 03:45:11;;;;;;;47.23;22.00;;;-1.80;99.90;;;;;;4917160;29;20025;-85
2021/12/22 03:47:39;;;;;;;38.07;20.70;;;-1.70;99.90;;;;;;4914316;29;20074;-86
2021/12/22 03:50:08;;;;;;;34.90;20.53;;;-1.70;99.90;;;;;;4899136;29;20033;-86
2021/12/22 03:52:34;;;;;;;37.37;22.00;;;-1.70;99.90;;;;;;4901212;29;20028;-86
2021/12/22 03:55:03;;;;;;;36.53;20.77;;;-1.60;99.90;;;;;;4900944;29;20063;-86
2021/12/22 03:57:29;;;;;;;41.93;21.53;;;-1.60;99.90;;;;;;4916759;29;20480;-86
2021/12/22 03:59:58;;;;;;;67.00;24.27;;;-1.70;99.90;;;;;;4900571;29;20084;-86
2021/12/22 04:02:24;;;;;;;47.07;21.80;;;-1.70;99.90;;;;;;4899211;29;20035;-86
2021/12/22 04:04:52;;;;;;;39.17;21.10;;;-1.80;99.90;;;;;;4882009;29;20033;-86
2021/12/22 04:07:19;;;;;;;32.33;18.60;;;-1.80;99.90;;;;;;4882273;29;20467;-86
2021/12/22 04:09:45;;;;;;;38.50;21.47;;;-1.80;99.90;;;;;;4896092;29;20077;-86
2021/12/22 04:12:14;;;;;;;37.80;19.37;;;-1.80;99.90;;;;;;4895264;29;20032;-86
2021/12/22 04:14:43;;;;;;;41.37;21.73;;;-1.70;99.90;;;;;;4881856;29;20040;-86
2021/12/22 04:17:19;;;;;;;;;;;;;;;;;;;;;
2021/12/22 04:19:47;;;;;;;42.00;20.33;;;-1.70;99.90;;;;;;4910112;29;20031;-86
2021/12/22 04:22:16;;;;;;;37.30;20.20;;;-1.70;99.90;;;;;;4900523;29;20036;-86
2021/12/22 04:24:42;;;;;;;36.57;19.73;;;-1.70;99.90;;;;;;4902438;29;20364;-85
2021/12/22 04:27:17;;;;;;;39.00;20.80;;;-1.70;99.90;;;;;;4919276;29;20028;-86
2021/12/22 04:29:47;;;;;;;45.27;20.77;;;-1.70;99.90;;;;;;4932889;28;20036;-86
2021/12/22 04:32:15;;;;;;;35.27;18.43;;;-1.80;99.90;;;;;;4905162;29;20023;-86
2021/12/22 04:34:41;;;;;;;37.23;19.20;;;-1.80;99.90;;;;;;4903378;29;20113;-88
2021/12/22 04:37:09;;;;;;;37.27;18.87;;;-1.80;99.90;;;;;;4901159;29;20036;-84
2021/12/22 04:39:42;;;;;;;50.27;22.20;;;-1.70;99.90;;;;;;4886852;29;20507;-86
2021/12/22 04:42:21;;;;;;;;;;;;;;;;;;;;;
2021/12/22 04:44:53;;;;;;;40.10;21.30;;;-1.80;99.90;;;;;;4897158;29;20471;-86
2021/12/22 04:47:20;;;;;;;44.70;22.07;;;-1.70;99.90;;;;;;4898201;29;20028;-86
2021/12/22 04:50:12;;;;;;;40.47;20.10;;;-1.80;99.90;;;;;;4896682;29;20080;-86
2021/12/22 04:52:48;;;;;;;38.13;20.33;;;-1.80;99.90;;;;;;4900779;29;20024;-86
2021/12/22 04:55:14;;;;;;;40.50;21.23;;;-1.80;99.90;;;;;;4904070;29;20455;-86
2021/12/22 04:57:45;;;;;;;41.30;21.13;;;-1.80;99.90;;;;;;4903755;29;20370;-86
2021/12/22 05:00:43;;;;;;;39.33;19.97;;;-1.80;99.90;;;;;;4903840;29;20029;-86
2021/12/22 05:03:09;;;;;;;39.20;20.67;;;-1.70;99.90;;;;;;4889202;29;20028;-86
2021/12/22 05:05:46;;;;;;;43.43;21.00;;;-1.70;99.90;;;;;;4903627;29;20127;-85
2021/12/22 05:08:22;;;;;;;;;;;;;;;;;;;;;
2021/12/22 05:10:50;;;;;;;40.57;20.90;;;-1.60;99.90;;;;;;4919712;29;20028;-86
2021/12/22 05:13:29;;;;;;;40.87;21.80;;;-1.70;99.90;;;;;;4888819;29;20021;-87
2021/12/22 05:16:05;;;;;;;39.03;20.37;;;-1.60;99.90;;;;;;4898765;29;20040;-86
2021/12/22 05:18:57;;;;;;;35.33;19.93;;;-1.60;99.90;;;;;;4884949;29;20032;-86
2021/12/22 05:21:31;;;;;;;35.90;20.33;;;-1.70;99.90;;;;;;4884910;29;20391;-86
2021/12/22 05:24:09;;;;;;;;;;;;;;;;;;;;;
2021/12/22 05:26:41;;;;;;;36.87;19.70;;;-1.70;99.90;;;;;;4901730;29;20382;-86
2021/12/22 05:29:09;;;;;;;36.33;20.00;;;-1.70;99.90;;;;;;4884806;29;20535;-86
2021/12/22 05:31:42;;;;;;;38.87;21.87;;;-1.70;99.90;;;;;;4894920;29;20020;-86
2021/12/22 05:34:15;;;;;;;38.57;21.67;;;-1.70;99.90;;;;;;4920273;29;20051;-86
2021/12/22 05:36:44;;;;;;;44.47;21.73;;;-1.70;99.90;;;;;;4910939;29;20454;-86
2021/12/22 05:39:09;;;;;;;41.03;21.23;;;-1.70;99.90;;;;;;4884792;29;20475;-86
2021/12/22 05:41:35;;;;;;;41.73;21.60;;;-1.60;99.90;;;;;;4909787;29;20052;-86
2021/12/22 05:44:10;;;;;;;44.37;21.27;;;-1.70;99.90;;;;;;4905865;29;20052;-86
2021/12/22 05:46:35;;;;;;;37.00;20.07;;;-1.60;99.90;;;;;;4924483;29;20036;-86
2021/12/22 05:49:03;;;;;;;42.13;20.80;;;-1.60;99.90;;;;;;4926669;29;20008;-87
2021/12/22 05:51:34;;;;;;;40.50;21.53;;;-1.60;99.90;;;;;;4923905;29;20024;-84
2021/12/22 05:54:02;;;;;;;46.10;21.97;;;-1.60;99.90;;;;;;4913567;29;20032;-86
2021/12/22 05:56:37;;;;;;;41.77;20.63;;;-1.60;99.90;;;;;;4902332;29;20040;-86
2021/12/22 05:59:06;;;;;;;45.63;22.33;;;-1.60;99.90;;;;;;4901451;29;20085;-86
2021/12/22 06:01:37;;;;;;;43.80;21.77;;;-1.60;99.90;;;;;;4883838;29;20064;-86
2021/12/22 06:04:08;;;;;;;43.30;22.30;;;-1.60;99.90;;;;;;4891575;29;20021;-86
2021/12/22 06:06:41;;;;;;;45.85;21.15;;;-1.60;99.90;;;;;;4884082;29;20060;-86
2021/12/22 06:09:12;;;;;;;43.70;21.90;;;-1.60;99.90;;;;;;4883546;29;20126;-86
2021/12/22 06:11:45;;;;;;;43.23;21.40;;;-1.70;99.90;;;;;;4900557;29;20059;-85
2021/12/22 06:14:16;;;;;;;41.97;20.97;;;-1.60;99.90;;;;;;4889199;29;20079;-86
2021/12/22 06:16:42;;;;;;;43.45;20.83;;;-1.70;99.90;;;;;;4883816;29;20546;-86
2021/12/22 06:19:12;;;;;;;37.93;19.53;;;-1.70;99.90;;;;;;4883557;29;20115;-86
2021/12/22 06:21:41;;;;;;;42.03;20.03;;;-1.70;99.90;;;;;;4908331;29;20037;-86
2021/12/22 06:24:08;;;;;;;38.97;20.20;;;-1.70;99.90;;;;;;4893736;29;20028;-85
2021/12/22 06:26:41;;;;;;;39.50;19.53;;;-1.70;99.90;;;;;;4905380;29;20043;-86
2021/12/22 06:29:09;;;;;;;40.93;19.27;;;-1.70;99.90;;;;;;4898426;29;20029;-86
2021/12/22 06:31:37;;;;;;;34.70;18.00;;;-1.70;99.90;;;;;;4908092;29;20028;-86
2021/12/22 06:34:03;;;;;;;39.13;18.70;;;-1.70;99.90;;;;;;4899795;29;20064;-85
2021/12/22 06:36:29;;;;;;;36.67;18.17;;;-1.70;99.90;;;;;;4902422;29;20067;-85
2021/12/22 06:38:58;;;;;;;37.37;17.17;;;-1.70;99.90;;;;;;4918823;29;20028;-87
2021/12/22 06:41:26;;;;;;;37.57;19.00;;;-1.80;99.90;;;;;;4901802;29;20055;-88
2021/12/22 06:43:52;;;;;;;40.23;18.80;;;-1.80;99.90;;;;;;4918711;29;20032;-85
2021/12/22 06:46:20;;;;;;;39.13;18.10;;;-1.80;99.90;;;;;;4884945;29;20035;-85
2021/12/22 06:48:49;;;;;;;43.67;20.33;;;-1.80;99.90;;;;;;4898930;29;20029;-85
2021/12/22 06:51:17;;;;;;;43.70;19.70;;;-1.90;99.90;;;;;;4891899;29;20040;-85
2021/12/22 06:53:43;;;;;;;41.13;19.83;;;-1.90;99.90;;;;;;4897079;29;20023;-85
2021/12/22 06:56:11;;;;;;;43.07;20.00;;;-1.90;99.90;;;;;;4920872;29;20490;-85
2021/12/22 06:58:37;;;;;;;43.87;20.73;;;-1.90;99.90;;;;;;4885296;29;20120;-85
2021/12/22 07:01:03;;;;;;;44.50;21.53;;;-2.00;99.90;;;;;;4911206;29;20111;-85
2021/12/22 07:03:29;;;;;;;47.53;22.00;;;-2.00;99.90;;;;;;4920222;28;20024;-85
2021/12/22 07:05:58;;;;;;;53.80;22.53;;;-2.00;99.90;;;;;;4926086;29;20008;-84
2021/12/22 07:08:23;;;;;;;47.87;21.80;;;-2.10;99.80;;;;;;4932285;28;20048;-85
2021/12/22 07:10:51;;;;;;;57.10;23.67;;;-2.20;99.80;;;;;;4924657;29;20031;-84
2021/12/22 07:13:17;;;;;;;43.53;21.63;;;-2.20;99.90;;;;;;4912677;29;20040;-84
2021/12/22 07:15:43;;;;;;;46.53;21.60;;;-2.30;99.90;;;;;;4882865;29;20036;-86
2021/12/22 07:18:14;;;;;;;44.43;20.57;;;-2.30;99.90;;;;;;4897292;29;20032;-85
2021/12/22 07:20:46;;;;;;;;;;;-2.30;99.90;;;;;;4917410;29;20475;-89
2021/12/22 07:23:50;;;;;;;48.08;21.38;;;-2.30;99.90;;;;;;4916695;29;20313;-89
2021/12/22 07:29:07;;;;;;;41.83;20.07;;;-2.30;99.90;;;;;;4913151;29;20040;-86
2021/12/22 07:31:41;;;;;;;47.20;21.40;;;-2.30;99.90;;;;;;4907716;29;20023;-86
2021/12/22 07:34:36;;;;;;;42.57;20.80;;;-2.30;99.90;;;;;;4909831;29;20032;-87
2021/12/22 07:37:18;;;;;;;47.20;21.53;;;-2.30;99.90;;;;;;4913376;29;20056;-87
2021/12/22 07:40:08;;;;;;;39.60;19.92;;;-2.30;99.90;;;;;;4897152;29;20065;-87
2021/12/22 07:42:43;;;;;;;43.47;20.43;;;-2.30;99.90;;;;;;4907153;29;20065;-86
2021/12/22 07:45:40;;;;;;;42.63;20.67;;;-2.30;99.90;;;;;;4906554;29;20043;-87
2021/12/22 07:48:06;;;;;;;39.27;19.57;;;-2.30;99.90;;;;;;4909811;29;20039;-87
2021/12/22 07:54:44;;;;;;;;;;;;;;;;;;;;;
2021/12/22 07:57:43;;;;;;;46.97;21.90;;;-2.30;99.90;;;;;;4917440;29;20046;-89
2021/12/22 08:00:20;;;;;;;37.40;20.20;;;-2.30;99.90;;;;;;4915744;29;20044;-89
2021/12/22 08:03:33;;;;;;;38.40;19.80;;;-2.30;99.90;;;;;;4873946;29;20131;-86
2021/12/22 08:06:05;;;;;;;;;;;;;;;;;;;;;
2021/12/22 08:08:40;;;;;;;39.67;20.03;;;-2.30;99.90;;;;;;4916786;29;20025;-85
2021/12/22 08:11:09;;;;;;;40.03;20.23;;;-2.20;99.90;;;;;;4907652;29;20032;-86
2021/12/22 08:13:35;;;;;;;38.07;20.33;;;-2.20;99.90;;;;;;4895652;29;20036;-85
2021/12/22 08:16:01;;;;;;;38.47;20.37;;;-2.10;99.90;;;;;;4882694;29;20120;-85
2021/12/22 08:18:43;;;;;;;41.70;19.63;;;-2.10;99.90;;;;;;4896460;29;20051;-85
2021/12/22 08:21:21;;;;;;;;;;;;;;;;;;;;;
2021/12/22 08:23:55;;;;;;;36.33;19.20;;;-2.10;99.90;;;;;;4922242;28;19919;-85
2021/12/22 08:26:33;;;;;;;;;;;;;;;;;;;;;
2021/12/22 08:29:04;;;;;;;36.80;18.70;;;-2.00;99.90;;;;;;4906275;29;20031;-86
2021/12/22 08:31:32;;;;;;;40.10;19.03;;;-1.90;99.90;;;;;;4898947;29;20122;-85
2021/12/22 08:34:00;;;;;;;36.60;18.57;;;-1.90;99.90;;;;;;4873809;29;20041;-85
2021/12/22 08:39:30;;;;;;;35.27;17.83;;;-1.80;99.90;;;;;;4933784;29;20046;-85
2021/12/22 08:41:59;;;;;;;34.60;18.23;;;-1.80;99.90;;;;;;4913107;29;20139;-87
2021/12/22 08:44:28;;;;;;;37.20;17.87;;;-1.70;99.90;;;;;;4899558;29;20035;-85
2021/12/22 08:47:02;;;;;;;34.33;17.00;;;-1.70;99.90;;;;;;4900024;29;20040;-87
2021/12/22 08:49:47;;;;;;;;;;;;;;;;;;;;;
2021/12/22 08:52:23;;;;;;;31.20;16.47;;;-1.60;99.90;;;;;;4915867;29;20020;-86
2021/12/22 08:55:20;;;;;;;35.70;17.23;;;-1.60;99.90;;;;;;4892378;29;20047;-86
2021/12/22 08:57:48;;;;;;;34.03;18.20;;;-1.50;99.90;;;;;;4899775;29;20070;-86
2021/12/22 09:00:17;;;;;;;31.90;17.43;;;-1.50;99.90;;;;;;4899228;29;20038;-85
2021/12/22 09:09:11;;;;;;;28.60;14.93;;;-1.30;99.90;;;;;;4895497;29;20037;-88
2021/12/22 09:11:38;;;;;;;29.53;16.43;;;-1.30;99.90;;;;;;4865784;29;20152;-87
2021/12/22 09:14:58;;;;;;;28.47;15.87;;;-1.20;99.90;;;;;;4887286;29;20475;-90
2021/12/22 09:18:00;;;;;;;27.73;15.47;;;-1.20;99.90;;;;;;4890864;29;20060;-87
2021/12/22 09:20:49;;;;;;;26.10;13.63;;;-1.10;99.90;;;;;;4884345;29;20036;-86
2021/12/22 09:23:23;;;;;;;25.77;13.57;;;-1.00;99.90;;;;;;4916212;29;20367;-89
2021/12/22 09:25:55;;;;;;;24.43;12.93;;;-1.00;99.90;;;;;;4897487;29;20397;-89
2021/12/22 09:29:26;;;;;;;;;;;;;;;;;;;;;
2021/12/22 09:32:15;;;;;;;24.63;13.77;;;-0.80;99.90;;;;;;4899326;29;20035;-89
2021/12/22 09:37:53;;;;;;;21.37;11.53;;;-0.70;99.90;;;;;;4905692;29;20029;-89
2021/12/22 09:40:46;;;;;;;22.07;12.30;;;-0.70;99.90;;;;;;4891997;29;20050;-89
2021/12/22 09:43:31;;;;;;;;;;;;;;;;;;;;;
2021/12/22 09:46:29;;;;;;;22.23;12.53;;;-0.50;99.90;;;;;;4910798;29;20046;-89
2021/12/22 09:49:45;;;;;;;20.13;12.00;;;-0.50;99.90;;;;;;4920506;29;20043;-90
2021/12/22 09:52:31;;;;;;;;;;;;;;;;;;;;;
2021/12/22 09:56:01;;;;;;;20.83;11.20;;;-0.40;99.90;;;;;;4920522;29;20032;-90
2021/12/22 09:59:00;;;;;;;;;;;;;;;;;;;;;
2021/12/22 10:01:55;;;;;;;23.20;11.73;;;-0.20;99.90;;;;;;4900651;29;20478;-89
2021/12/22 10:05:36;;;;;;;20.43;10.63;;;-0.20;99.90;;;;;;4902541;29;20035;-89
2021/12/22 10:07:41;;;;;;;17.97;10.47;;;-0.20;99.90;;;;;;4888245;29;20123;-89
2021/12/22 10:13:44;;;;;;;17.27;10.90;;;0.00;99.90;;;;;;4892933;29;20037;-89
2021/12/22 10:23:37;;;;;;;;;;;;;;;;;;;;;
2021/12/22 10:26:50;;;;;;;17.67;10.43;;;0.20;99.90;;;;;;4903976;29;20397;-89
2021/12/22 10:30:01;;;;;;;21.20;11.45;;;0.30;99.90;;;;;;4903048;29;20111;-89
2021/12/22 10:32:56;;;;;;;;;;;;;;;;;;;;;
2021/12/22 10:36:24;;;;;;;;;;;;;;;;;;;;;
2021/12/22 10:39:18;;;;;;;;;;;;;;;;;;;;;
2021/12/22 10:45:35;;;;;;;18.17;11.43;;;0.50;99.90;;;;;;4874563;29;20043;-90
2021/12/22 10:54:54;;;;;;;;;;;;;;;;;;;;;
2021/12/22 11:02:07;;;;;;;;;;;;;;;;;;;;;
2021/12/22 11:05:06;;;;;;;;;;;;;;;;;;;;;
2021/12/22 11:11:37;;;;;;;;;;;;;;;;;;;;;
2021/12/22 11:15:01;;;;;;;16.93;10.93;;;0.80;99.90;;;;;;4863653;29;20030;-89
2021/12/22 11:18:02;;;;;;;;;;;;;;;;;;;;;
2021/12/22 11:21:22;;;;;;;17.10;11.05;;;0.80;99.90;;;;;;4865471;29;20100;-92
2021/12/22 11:27:32;;;;;;;17.77;11.43;;;0.90;99.90;;;;;;4902622;29;20076;-91
2021/12/22 11:30:33;;;;;;;;;;;;;;;;;;;;;
2021/12/22 11:40:27;;;;;;;;;;;;;;;;;;;;;
2021/12/22 11:47:01;;;;;;;;;;;;;;;;;;;;;
2021/12/22 11:54:07;;;;;;;;;;;;;;;;;;;;;
2021/12/22 12:03:18;;;;;;;;;;;;;;;;;;;;;
2021/12/22 12:09:57;;;;;;;;;;;;;;;;;;;;;
2021/12/22 12:13:37;;;;;;;;;;;;;;;;;;;;;
2021/12/22 12:23:37;;;;;;;18.15;11.27;;;1.50;99.90;;;;;;4920760;29;20125;-90
2021/12/22 12:26:43;;;;;;;;;;;;;;;;;;;;;
2021/12/22 12:33:06;;;;;;;16.58;11.13;;;1.60;99.90;;;;;;4900614;29;20043;-90
2021/12/22 12:35:53;;;;;;;17.88;11.10;;;1.60;99.90;;;;;;4901548;29;20061;-88
2021/12/22 12:38:44;;;;;;;17.48;11.48;;;1.60;99.90;;;;;;4878129;29;20044;-89
2021/12/22 12:41:45;;;;;;;17.10;11.15;;;1.60;99.90;;;;;;4884526;29;20136;-90
2021/12/22 12:44:37;;;;;;;;;;;;;;;;;;;;;
2021/12/22 12:51:39;;;;;;;16.42;10.90;;;1.60;99.90;;;;;;4880575;29;20069;-91
2021/12/22 12:58:02;;;;;;;;;;;;;;;;;;;;;
2021/12/22 13:03:59;;;;;;;17.77;10.32;;;1.70;99.90;;;;;;4814894;29;20064;-90
2021/12/22 13:06:48;;;;;;;16.00;10.70;;;1.70;99.90;;;;;;4869942;29;20036;-94
2021/12/22 13:10:14;;;;;;;17.52;11.50;;;1.70;99.90;;;;;;4883187;29;20029;-95
2021/12/22 13:27:31;;;;;;;;;;;;;;;;;;;;;
2021/12/22 13:30:57;;;;;;;;;;;;;;;;;;;;;
2021/12/22 13:44:48;;;;;;;16.20;10.48;;;1.70;99.90;;;;;;4755486;30;20051;-93
2021/12/22 13:47:25;;;;;;;17.43;10.77;;;1.70;99.90;;;;;;4762599;29;20036;-92
2021/12/22 13:49:54;;;;;;;17.27;11.35;;;1.70;99.90;;;;;;4796025;30;20035;-93
2021/12/22 13:56:43;;;;;;;;;;;;;;;;;;;;;
2021/12/22 14:16:57;;;;;;;;;;;;;;;;;;;;;
2021/12/22 14:20:09;;;;;;;16.25;10.13;;;1.70;99.90;;;;;;4815384;29;20053;-93
2021/12/22 14:23:04;;;;;;;17.17;10.95;;;1.70;99.90;;;;;;4812614;29;20027;-92
2021/12/22 14:26:26;;;;;;;17.65;10.70;;;1.70;99.90;;;;;;4811403;29;20034;-93
2021/12/22 14:29:21;;;;;;;15.65;11.00;;;1.70;99.90;;;;;;4772637;29;20038;-92
2021/12/22 14:32:23;;;;;;;16.48;10.77;;;1.70;99.90;;;;;;4871906;29;20045;-90
2021/12/22 14:35:51;;;;;;;;;;;;;;;;;;;;;
2021/12/22 14:53:46;;;;;;;;;;;;;;;;;;;;;
2021/12/22 15:13:40;;;;;;;;;;;;;;;;;;;;;
2021/12/22 15:39:36;;;;;;;18.00;12.85;;;1.20;99.90;;;;;;4700675;30;20119;-90
2021/12/22 15:42:33;;;;;;;;;;;;;;;;;;;;;
2021/12/22 15:45:21;;;;;;;19.67;12.40;;;1.20;99.90;;;;;;4824482;29;20065;-92
2021/12/22 15:48:23;;;;;;;;;;;;;;;;;;;;;
2021/12/22 15:51:17;;;;;;;19.98;13.13;;;1.20;99.90;;;;;;4865529;29;20052;-91
2021/12/22 15:54:04;;;;;;;17.57;12.83;;;1.10;99.90;;;;;;4882885;29;20097;-92
2021/12/22 15:56:59;;;;;;;;;;;;;;;;;;;;;
2021/12/22 15:59:59;;;;;;;;;;;;;;;;;;;;;
2021/12/22 16:03:26;;;;;;;;;;;;;;;;;;;;;
2021/12/22 16:05:50;;;;;;;21.17;14.02;;;1.10;99.90;;;;;;4881803;29;20096;-90
2021/12/22 16:08:29;;;;;;;19.92;13.32;;;1.10;99.90;;;;;;4882687;29;20089;-90
2021/12/22 16:11:39;;;;;;;;;;;;;;;;;;;;;
2021/12/22 16:24:19;;;;;;;;;;;;;;;;;;;;;
2021/12/22 16:26:55;;;;;;;19.15;13.13;;;1.10;99.90;;;;;;4861093;29;20109;-92
2021/12/22 16:30:23;;;;;;;17.40;12.73;;;1.10;99.90;;;;;;4867309;29;20101;-93
2021/12/22 16:33:18;;;;;;;16.43;12.10;;;1.10;99.90;;;;;;4875999;29;20125;-91
2021/12/22 17:05:14;;;;;;;;;;;;;;;;;;;;;
2021/12/22 17:15:53;;;;;;;;;;;;;;;;;;;;;
2021/12/22 18:30:41;;;;;;;;;;;;;;;;;;;;;
2021/12/22 18:34:33;;;;;;;;;;;;;;;;;;;;;
2021/12/22 18:50:55;;;;;;;;;;;;;;;;;;;;;
2021/12/22 18:56:58;;;;;;;25.57;17.50;;;0.60;99.90;;;;;;4709872;30;20048;-92
2021/12/22 19:02:48;;;;;;;25.90;16.17;;;0.60;99.90;;;;;;4678087;30;20069;-93
2021/12/22 19:05:46;;;;;;;24.88;17.42;;;0.60;99.90;;;;;;4709127;30;20037;-93
2021/12/22 19:08:14;;;;;;;26.23;16.90;;;0.60;99.90;;;;;;4787463;29;20446;-91
2021/12/22 19:11:10;;;;;;;25.80;16.97;;;0.50;99.90;;;;;;4828452;29;20023;-92
2021/12/22 21:47:16;;;;;;;;;;;;;;;;;;;;;
2021/12/22 21:53:20;;;;;;;19.95;13.90;;;0.90;99.70;;;;;;4742194;30;20059;-93
2021/12/22 21:55:58;;;;;;;21.47;14.40;;;1.00;99.70;;;;;;4727879;30;20115;-93
2021/12/22 21:58:50;;;;;;;21.65;15.02;;;1.00;99.70;;;;;;4735543;30;20037;-93
2021/12/22 22:02:00;;;;;;;20.60;14.13;;;1.00;99.70;;;;;;4711223;30;20075;-92
2021/12/22 22:04:29;;;;;;;20.80;13.93;;;1.00;99.70;;;;;;4741666;30;20058;-94
2021/12/22 22:07:10;;;;;;;21.10;14.10;;;1.00;99.60;;;;;;4751302;30;20044;-92
2021/12/22 22:10:02;;;;;;;20.80;13.85;;;1.10;99.60;;;;;;4771595;30;20036;-91
2021/12/22 22:12:38;;;;;;;19.90;14.43;;;1.10;99.60;;;;;;4752219;30;20032;-90
2021/12/22 22:15:13;;;;;;;20.73;13.63;;;1.10;99.60;;;;;;4742811;30;20032;-94
2021/12/22 22:17:54;;;;;;;;;;;;;;;;;;;;;
2021/12/22 22:20:25;;;;;;;20.70;13.85;;;1.10;99.60;;;;;;4743257;30;20043;-93
2021/12/22 22:27:02;;;;;;;21.47;14.93;;;1.10;99.60;;;;;;4721605;30;20056;-93
2021/12/22 22:29:28;;;;;;;25.47;15.40;;;1.10;99.50;;;;;;4712559;30;20045;-93
2021/12/22 22:32:08;;;;;;;19.07;13.73;;;1.10;99.50;;;;;;4738995;30;20033;-91
2021/12/22 22:34:49;;;;;;;20.50;14.30;;;1.10;99.50;;;;;;4747790;30;20456;-94
2021/12/22 22:40:51;;;;;;;20.63;14.73;;;1.20;99.60;;;;;;4740603;30;20278;-92
2021/12/22 22:43:48;;;;;;;21.23;15.38;;;1.20;99.50;;;;;;4757734;30;20028;-92
2021/12/22 22:46:23;;;;;;;21.73;14.15;;;1.20;99.60;;;;;;4746322;30;20052;-92
2021/12/22 22:48:57;;;;;;;20.30;14.25;;;1.20;99.60;;;;;;4757013;30;20117;-93
2021/12/22 22:54:29;;;;;;;20.98;14.48;;;1.20;99.60;;;;;;4740923;30;20441;-91
2021/12/22 22:57:10;;;;;;;19.93;14.27;;;1.20;99.60;;;;;;4739480;30;20040;-92
2021/12/22 22:59:41;;;;;;;20.17;14.55;;;1.20;99.60;;;;;;4739556;30;20048;-92
2021/12/22 23:02:20;;;;;;;;;;;;;;;;;;;;;
2021/12/22 23:04:56;;;;;;;22.63;15.02;;;1.30;99.60;;;;;;4757606;30;20115;-91
2021/12/22 23:07:31;;;;;;;22.00;14.40;;;1.30;99.60;;;;;;4758699;30;20136;-93
2021/12/22 23:10:14;;;;;;;21.15;14.48;;;1.30;99.60;;;;;;4757441;30;20032;-92
2021/12/22 23:12:47;;;;;;;20.77;14.40;;;1.30;99.50;;;;;;4735186;30;20040;-91
2021/12/22 23:15:32;;;;;;;25.92;15.38;;;1.30;99.50;;;;;;4761771;30;20044;-92
2021/12/22 23:18:27;;;;;;;22.20;14.68;;;1.30;99.50;;;;;;4763175;30;20059;-90
2021/12/22 23:20:59;;;;;;;19.50;14.32;;;1.30;99.40;;;;;;4766283;30;20047;-93
2021/12/22 23:23:28;;;;;;;22.42;14.52;;;1.30;99.50;;;;;;4755747;30;20028;-91
2021/12/22 23:26:08;;;;;;;19.55;14.43;;;1.30;99.40;;;;;;4755557;30;20480;-91
2021/12/22 23:28:41;;;;;;;23.20;15.18;;;1.30;99.40;;;;;;4756197;30;20032;-91